< < Back
Terminal Aerodrome Forecast


Current Version              Previous Versions:   1  2  3  4  5  6  7  8  9  

Terminal Aerodrome Forecast

700
FTUS44 KMOB 291142
TAFMOB
TAF
KMOB 291142Z 2912/3012 03006KT P6SM FEW070 FEW200
     FM291600 08010G17KT P6SM SCT040 SCT250
     FM292000 08008KT P6SM VCTS SCT040CB BKN250
     FM292300 08005KT P6SM SCT250
     FM300000 05003KT P6SM SKC=

Latest METAR

434
SAUS80 KWBC 291200
MTRMOB
METAR KMOB 291156Z 05004KT 10SM FEW050 FEW200 24/23 A3000 RMK AO2 SLP156
70014 T02390228 10239 20228 53006


USA.gov is the U.S. government's official web portal to all federal, state and local government web resources and services.